sensor_id;sensor_type;location;lat;lon;timestamp;pressure;altitude;pressure_sealevel;temperature;humidity
83379;BME280;73284;50.882;5.984;2023-12-20T00:01:16;100213.09;;;10.64;74.35
83379;BME280;73284;50.882;5.984;2023-12-20T00:03:41;100218.31;;;10.60;74.30
83379;BME280;73284;50.882;5.984;2023-12-20T00:06:06;100223.34;;;10.69;73.55
83379;BME280;73284;50.882;5.984;2023-12-20T00:08:32;100234.31;;;10.74;73.35
83379;BME280;73284;50.882;5.984;2023-12-20T00:10:57;100223.59;;;10.64;74.07
83379;BME280;73284;50.882;5.984;2023-12-20T00:13:23;100229.69;;;10.68;73.56
83379;BME280;73284;50.882;5.984;2023-12-20T00:15:48;100230.84;;;10.89;72.91
83379;BME280;73284;50.882;5.984;2023-12-20T00:18:13;100226.63;;;10.85;72.50
83379;BME280;73284;50.882;5.984;2023-12-20T00:20:39;100236.88;;;10.90;72.27
83379;BME280;73284;50.882;5.984;2023-12-20T00:23:04;100242.31;;;11.00;72.23
83379;BME280;73284;50.882;5.984;2023-12-20T00:25:30;100255.75;;;10.95;72.13
83379;BME280;73284;50.882;5.984;2023-12-20T00:27:55;100248.19;;;10.94;71.87
83379;BME280;73284;50.882;5.984;2023-12-20T00:30:20;100257.69;;;10.79;72.66
83379;BME280;73284;50.882;5.984;2023-12-20T00:32:46;100256.75;;;9.99;75.42
83379;BME280;73284;50.882;5.984;2023-12-20T00:35:15;100241.81;;;10.19;74.56
83379;BME280;73284;50.882;5.984;2023-12-20T00:37:42;100256.72;;;10.49;73.94
83379;BME280;73284;50.882;5.984;2023-12-20T00:40:07;100263.78;;;9.95;75.38
83379;BME280;73284;50.882;5.984;2023-12-20T00:42:33;100263.63;;;9.73;76.46
83379;BME280;73284;50.882;5.984;2023-12-20T00:44:59;100267.34;;;10.03;75.22
83379;BME280;73284;50.882;5.984;2023-12-20T00:47:24;100281.38;;;9.49;75.81
83379;BME280;73284;50.882;5.984;2023-12-20T00:49:50;100281.97;;;8.99;75.65
83379;BME280;73284;50.882;5.984;2023-12-20T00:52:15;100297.47;;;8.37;77.40
83379;BME280;73284;50.882;5.984;2023-12-20T00:54:42;100290.19;;;8.70;76.19
83379;BME280;73284;50.882;5.984;2023-12-20T00:57:08;100300.28;;;8.32;76.47
83379;BME280;73284;50.882;5.984;2023-12-20T00:59:33;100309.22;;;8.31;75.93
83379;BME280;73284;50.882;5.984;2023-12-20T01:01:58;100311.06;;;8.55;74.78
83379;BME280;73284;50.882;5.984;2023-12-20T01:04:24;100309.22;;;8.31;75.23
83379;BME280;73284;50.882;5.984;2023-12-20T01:06:49;100311.06;;;7.95;76.41
83379;BME280;73284;50.882;5.984;2023-12-20T01:09:14;100309.53;;;8.18;75.60
83379;BME280;73284;50.882;5.984;2023-12-20T01:11:40;100306.34;;;8.60;73.97
83379;BME280;73284;50.882;5.984;2023-12-20T01:14:05;100297.31;;;8.58;73.53
83379;BME280;73284;50.882;5.984;2023-12-20T01:16:30;100296.94;;;8.71;73.40
83379;BME280;73284;50.882;5.984;2023-12-20T01:18:56;100311.13;;;8.70;73.21
83379;BME280;73284;50.882;5.984;2023-12-20T01:21:21;100312.75;;;8.63;73.85
83379;BME280;73284;50.882;5.984;2023-12-20T01:23:46;100299.72;;;8.51;74.31
83379;BME280;73284;50.882;5.984;2023-12-20T01:26:12;100307.78;;;8.58;74.22
83379;BME280;73284;50.882;5.984;2023-12-20T01:28:38;100297.13;;;9.06;72.15
83379;BME280;73284;50.882;5.984;2023-12-20T01:31:03;100293.88;;;9.24;71.92
83379;BME280;73284;50.882;5.984;2023-12-20T01:33:29;100293.34;;;9.03;72.32
83379;BME280;73284;50.882;5.984;2023-12-20T01:35:54;100299.88;;;8.70;73.44
83379;BME280;73284;50.882;5.984;2023-12-20T01:38:20;100289.63;;;9.04;72.33
83379;BME280;73284;50.882;5.984;2023-12-20T01:40:45;100295.97;;;9.03;72.81
83379;BME280;73284;50.882;5.984;2023-12-20T01:43:11;100294.59;;;8.82;72.96
83379;BME280;73284;50.882;5.984;2023-12-20T01:45:39;100306.16;;;8.41;74.61
83379;BME280;73284;50.882;5.984;2023-12-20T01:48:05;100307.41;;;8.71;73.81
83379;BME280;73284;50.882;5.984;2023-12-20T01:50:32;100311.25;;;8.62;74.50
83379;BME280;73284;50.882;5.984;2023-12-20T01:53:02;100301.94;;;8.25;75.50
83379;BME280;73284;50.882;5.984;2023-12-20T01:55:29;100311.25;;;8.62;74.44
83379;BME280;73284;50.882;5.984;2023-12-20T01:57:57;100305.31;;;8.37;75.24
83379;BME280;73284;50.882;5.984;2023-12-20T02:00:23;100302.03;;;8.40;74.95
83379;BME280;73284;50.882;5.984;2023-12-20T02:02:53;100311.16;;;8.46;74.73
83379;BME280;73284;50.882;5.984;2023-12-20T02:05:18;100317.00;;;8.67;74.11
83379;BME280;73284;50.882;5.984;2023-12-20T02:07:44;100319.13;;;8.50;74.42
83379;BME280;73284;50.882;5.984;2023-12-20T02:10:09;100317.09;;;8.19;75.48
83379;BME280;73284;50.882;5.984;2023-12-20T02:12:35;100321.66;;;8.34;75.63
83379;BME280;73284;50.882;5.984;2023-12-20T02:15:01;100320.25;;;8.13;75.48
83379;BME280;73284;50.882;5.984;2023-12-20T02:17:27;100318.72;;;8.24;75.69
83379;BME280;73284;50.882;5.984;2023-12-20T02:19:52;100315.75;;;7.89;76.19
83379;BME280;73284;50.882;5.984;2023-12-20T02:22:18;100316.66;;;8.05;75.77
83379;BME280;73284;50.882;5.984;2023-12-20T02:24:43;100307.03;;;7.73;77.14
83379;BME280;73284;50.882;5.984;2023-12-20T02:27:08;100324.28;;;8.34;74.38
83379;BME280;73284;50.882;5.984;2023-12-20T02:29:34;100331.88;;;7.91;75.96
83379;BME280;73284;50.882;5.984;2023-12-20T02:32:00;100337.78;;;8.12;75.65
83379;BME280;73284;50.882;5.984;2023-12-20T02:34:26;100324.72;;;8.24;74.63
83379;BME280;73284;50.882;5.984;2023-12-20T02:36:51;100318.03;;;7.79;76.51
83379;BME280;73284;50.882;5.984;2023-12-20T02:39:17;100318.69;;;7.88;76.10
83379;BME280;73284;50.882;5.984;2023-12-20T02:41:43;100320.25;;;8.01;75.55
83379;BME280;73284;50.882;5.984;2023-12-20T02:44:08;100327.53;;;7.83;76.26
83379;BME280;73284;50.882;5.984;2023-12-20T02:46:34;100319.56;;;7.80;76.28
83379;BME280;73284;50.882;5.984;2023-12-20T02:48:59;100318.78;;;7.67;77.09
83379;BME280;73284;50.882;5.984;2023-12-20T02:51:24;100323.38;;;7.82;76.36
83379;BME280;73284;50.882;5.984;2023-12-20T02:53:50;100319.16;;;7.90;76.15
83379;BME280;73284;50.882;5.984;2023-12-20T02:56:15;100320.84;;;7.74;76.70
83379;BME280;73284;50.882;5.984;2023-12-20T02:58:40;100319.16;;;7.90;76.56
83379;BME280;73284;50.882;5.984;2023-12-20T03:01:06;100327.09;;;8.05;75.58
83379;BME280;73284;50.882;5.984;2023-12-20T03:03:31;100332.97;;;8.02;75.10
83379;BME280;73284;50.882;5.984;2023-12-20T03:05:57;100338.19;;;7.78;75.97
83379;BME280;73284;50.882;5.984;2023-12-20T03:08:22;100332.97;;;7.78;76.16
83379;BME280;73284;50.882;5.984;2023-12-20T03:10:48;100319.41;;;7.52;77.08
83379;BME280;73284;50.882;5.984;2023-12-20T03:13:13;100324.41;;;7.45;77.68
83379;BME280;73284;50.882;5.984;2023-12-20T03:15:39;100316.38;;;7.62;77.06
83379;BME280;73284;50.882;5.984;2023-12-20T03:18:05;100317.38;;;6.73;77.69
83379;BME280;73284;50.882;5.984;2023-12-20T03:20:30;100318.44;;;6.51;78.59
83379;BME280;73284;50.882;5.984;2023-12-20T03:23:02;100322.72;;;6.27;80.80
83379;BME280;73284;50.882;5.984;2023-12-20T03:25:28;100322.28;;;6.54;78.93
83379;BME280;73284;50.882;5.984;2023-12-20T03:27:53;100323.88;;;6.67;79.24
83379;BME280;73284;50.882;5.984;2023-12-20T03:30:19;100324.88;;;6.95;78.04
83379;BME280;73284;50.882;5.984;2023-12-20T03:32:45;100310.84;;;6.38;80.10
83379;BME280;73284;50.882;5.984;2023-12-20T03:35:11;100297.63;;;6.63;78.35
83379;BME280;73284;50.882;5.984;2023-12-20T03:37:36;100304.31;;;6.32;77.95
83379;BME280;73284;50.882;5.984;2023-12-20T03:40:02;100310.84;;;6.17;80.58
83379;BME280;73284;50.882;5.984;2023-12-20T03:42:28;100327.16;;;6.55;78.65
83379;BME280;73284;50.882;5.984;2023-12-20T03:44:53;100314.53;;;6.16;79.78
83379;BME280;73284;50.882;5.984;2023-12-20T03:47:19;100303.00;;;6.17;80.43
83379;BME280;73284;50.882;5.984;2023-12-20T03:49:44;100299.69;;;6.29;80.16
83379;BME280;73284;50.882;5.984;2023-12-20T03:52:09;100293.06;;;5.65;81.89
83379;BME280;73284;50.882;5.984;2023-12-20T03:54:35;100306.09;;;5.65;82.88
83379;BME280;73284;50.882;5.984;2023-12-20T03:57:01;100309.06;;;6.01;80.64
83379;BME280;73284;50.882;5.984;2023-12-20T03:59:26;100298.00;;;6.04;81.06
83379;BME280;73284;50.882;5.984;2023-12-20T04:01:52;100300.47;;;5.54;82.18
83379;BME280;73284;50.882;5.984;2023-12-20T04:04:17;100308.72;;;5.65;83.03
83379;BME280;73284;50.882;5.984;2023-12-20T04:06:42;100308.78;;;5.48;82.85
83379;BME280;73284;50.882;5.984;2023-12-20T04:09:08;100305.53;;;5.51;82.89
83379;BME280;73284;50.882;5.984;2023-12-20T04:11:37;100305.66;;;5.63;82.56
83379;BME280;73284;50.882;5.984;2023-12-20T04:14:02;100310.31;;;5.95;82.17
83379;BME280;73284;50.882;5.984;2023-12-20T04:16:30;100310.84;;;5.80;82.24
83379;BME280;73284;50.882;5.984;2023-12-20T04:18:55;100308.56;;;5.70;82.17
83379;BME280;73284;50.882;5.984;2023-12-20T04:21:20;100307.88;;;5.44;82.35
83379;BME280;73284;50.882;5.984;2023-12-20T04:23:46;100301.13;;;5.51;82.09
83379;BME280;73284;50.882;5.984;2023-12-20T04:26:11;100296.59;;;5.69;83.82
83379;BME280;73284;50.882;5.984;2023-12-20T04:28:36;100303.88;;;5.92;81.59
83379;BME280;73284;50.882;5.984;2023-12-20T04:31:02;100299.84;;;5.57;82.85
83379;BME280;73284;50.882;5.984;2023-12-20T04:33:27;100299.38;;;5.64;82.72
83379;BME280;73284;50.882;5.984;2023-12-20T04:35:53;100314.09;;;5.60;83.56
83379;BME280;73284;50.882;5.984;2023-12-20T04:38:18;100303.47;;;5.82;83.04
83379;BME280;73284;50.882;5.984;2023-12-20T04:40:43;100301.19;;;5.80;82.69
83379;BME280;73284;50.882;5.984;2023-12-20T04:43:09;100326.59;;;5.75;82.30
83379;BME280;73284;50.882;5.984;2023-12-20T04:45:34;100328.53;;;6.03;82.06
83379;BME280;73284;50.882;5.984;2023-12-20T04:48:01;100313.28;;;5.85;81.52
83379;BME280;73284;50.882;5.984;2023-12-20T04:50:27;100327.47;;;6.04;81.31
83379;BME280;73284;50.882;5.984;2023-12-20T04:52:52;100329.16;;;6.00;82.33
83379;BME280;73284;50.882;5.984;2023-12-20T04:55:18;100309.06;;;6.01;80.70
83379;BME280;73284;50.882;5.984;2023-12-20T04:57:43;100308.44;;;6.04;81.89
83379;BME280;73284;50.882;5.984;2023-12-20T05:00:09;100324.91;;;6.25;80.14
83379;BME280;73284;50.882;5.984;2023-12-20T05:02:35;100319.88;;;6.20;80.69
83379;BME280;73284;50.882;5.984;2023-12-20T05:05:01;100320.53;;;6.08;81.19
83379;BME280;73284;50.882;5.984;2023-12-20T05:07:26;100326.09;;;5.98;81.89
83379;BME280;73284;50.882;5.984;2023-12-20T05:09:52;100317.25;;;5.91;82.28
83379;BME280;73284;50.882;5.984;2023-12-20T05:12:17;100316.72;;;6.06;82.19
83379;BME280;73284;50.882;5.984;2023-12-20T05:14:42;100317.84;;;5.96;81.89
83379;BME280;73284;50.882;5.984;2023-12-20T05:17:08;100318.91;;;5.95;81.95
83379;BME280;73284;50.882;5.984;2023-12-20T05:19:33;100314.44;;;6.04;82.62
83379;BME280;73284;50.882;5.984;2023-12-20T05:22:02;100325.47;;;6.01;82.69
83379;BME280;73284;50.882;5.984;2023-12-20T05:24:28;100313.59;;;5.75;82.11
83379;BME280;73284;50.882;5.984;2023-12-20T05:26:53;100322.25;;;6.04;82.20
83379;BME280;73284;50.882;5.984;2023-12-20T05:29:18;100319.69;;;6.25;80.64
83379;BME280;73284;50.882;5.984;2023-12-20T05:31:44;100304.75;;;6.05;81.95
83379;BME280;73284;50.882;5.984;2023-12-20T05:34:09;100307.00;;;6.15;79.60
83379;BME280;73284;50.882;5.984;2023-12-20T05:36:34;100311.13;;;6.16;80.35
83379;BME280;73284;50.882;5.984;2023-12-20T05:39:00;100311.06;;;6.33;80.12
83379;BME280;73284;50.882;5.984;2023-12-20T05:41:25;100308.16;;;5.97;80.46
83379;BME280;73284;50.882;5.984;2023-12-20T05:43:51;100303.78;;;5.72;82.71
83379;BME280;73284;50.882;5.984;2023-12-20T05:46:16;100303.03;;;5.80;81.74
83379;BME280;73284;50.882;5.984;2023-12-20T05:48:41;100303.50;;;6.11;82.61
83379;BME280;73284;50.882;5.984;2023-12-20T05:51:07;100313.81;;;6.57;81.14
83379;BME280;73284;50.882;5.984;2023-12-20T05:53:33;100319.03;;;6.57;80.19
83379;BME280;73284;50.882;5.984;2023-12-20T05:55:58;100320.03;;;7.05;79.38
83379;BME280;73284;50.882;5.984;2023-12-20T05:58:23;100318.47;;;7.24;77.43
83379;BME280;73284;50.882;5.984;2023-12-20T06:00:49;100312.81;;;7.22;77.03
83379;BME280;73284;50.882;5.984;2023-12-20T06:03:14;100314.16;;;7.08;77.94
83379;BME280;73284;50.882;5.984;2023-12-20T06:05:40;100321.16;;;6.96;78.00
83379;BME280;73284;50.882;5.984;2023-12-20T06:08:06;100321.94;;;6.96;78.18
83379;BME280;73284;50.882;5.984;2023-12-20T06:10:31;100325.19;;;6.93;78.59
83379;BME280;73284;50.882;5.984;2023-12-20T06:12:56;100325.81;;;7.11;77.92
83379;BME280;73284;50.882;5.984;2023-12-20T06:15:23;100329.69;;;7.05;77.47
83379;BME280;73284;50.882;5.984;2023-12-20T06:17:49;100322.41;;;6.78;78.36
83379;BME280;73284;50.882;5.984;2023-12-20T06:20:15;100329.97;;;6.71;78.69
83379;BME280;73284;50.882;5.984;2023-12-20T06:22:40;100339.00;;;6.53;79.75
83379;BME280;73284;50.882;5.984;2023-12-20T06:25:06;100338.19;;;6.81;78.95
83379;BME280;73284;50.882;5.984;2023-12-20T06:27:32;100316.09;;;6.79;78.67
83379;BME280;73284;50.882;5.984;2023-12-20T06:29:57;100327.13;;;7.16;77.42
83379;BME280;73284;50.882;5.984;2023-12-20T06:32:23;100337.50;;;6.72;77.29
83379;BME280;73284;50.882;5.984;2023-12-20T06:34:49;100332.78;;;6.16;78.68
83379;BME280;73284;50.882;5.984;2023-12-20T06:37:15;100316.81;;;5.80;80.49
83379;BME280;73284;50.882;5.984;2023-12-20T06:39:40;100338.31;;;5.60;81.38
83379;BME280;73284;50.882;5.984;2023-12-20T06:42:06;100334.66;;;5.44;82.72
83379;BME280;73284;50.882;5.984;2023-12-20T06:44:31;100340.78;;;5.57;81.53
83379;BME280;73284;50.882;5.984;2023-12-20T06:46:57;100333.91;;;5.52;81.73
83379;BME280;73284;50.882;5.984;2023-12-20T06:49:22;100330.34;;;5.65;82.00
83379;BME280;73284;50.882;5.984;2023-12-20T06:51:48;100330.25;;;5.45;81.73
83379;BME280;73284;50.882;5.984;2023-12-20T06:54:13;100348.28;;;5.50;81.51
83379;BME280;73284;50.882;5.984;2023-12-20T06:56:38;100355.16;;;5.63;80.72
83379;BME280;73284;50.882;5.984;2023-12-20T06:59:04;100348.91;;;5.55;82.29
83379;BME280;73284;50.882;5.984;2023-12-20T07:01:29;100351.97;;;5.49;80.80
83379;BME280;73284;50.882;5.984;2023-12-20T07:03:54;100343.78;;;5.76;82.80
83379;BME280;73284;50.882;5.984;2023-12-20T07:06:20;100332.97;;;6.03;82.88
83379;BME280;73284;50.882;5.984;2023-12-20T07:08:45;100345.53;;;6.09;81.01
83379;BME280;73284;50.882;5.984;2023-12-20T07:11:11;100341.56;;;6.32;80.02
83379;BME280;73284;50.882;5.984;2023-12-20T07:13:36;100341.28;;;6.34;80.28
83379;BME280;73284;50.882;5.984;2023-12-20T07:16:02;100341.06;;;6.68;78.89
83379;BME280;73284;50.882;5.984;2023-12-20T07:18:28;100337.25;;;6.86;77.55
83379;BME280;73284;50.882;5.984;2023-12-20T07:20:53;100335.63;;;6.52;78.81
83379;BME280;73284;50.882;5.984;2023-12-20T07:23:19;100334.09;;;6.51;79.03
83379;BME280;73284;50.882;5.984;2023-12-20T07:25:45;100323.53;;;6.19;79.62
83379;BME280;73284;50.882;5.984;2023-12-20T07:28:11;100334.66;;;6.36;78.47
83379;BME280;73284;50.882;5.984;2023-12-20T07:30:36;100332.94;;;6.40;79.19
83379;BME280;73284;50.882;5.984;2023-12-20T07:33:01;100337.66;;;6.18;79.77
83379;BME280;73284;50.882;5.984;2023-12-20T07:35:27;100335.81;;;6.18;80.02
83379;BME280;73284;50.882;5.984;2023-12-20T07:37:53;100342.00;;;6.43;79.19
83379;BME280;73284;50.882;5.984;2023-12-20T07:40:18;100330.13;;;6.25;79.20
83379;BME280;73284;50.882;5.984;2023-12-20T07:42:44;100330.31;;;6.20;79.79
83379;BME280;73284;50.882;5.984;2023-12-20T07:45:09;100328.75;;;6.19;79.91
83379;BME280;73284;50.882;5.984;2023-12-20T07:47:35;100330.31;;;6.11;79.83
83379;BME280;73284;50.882;5.984;2023-12-20T07:50:01;100325.84;;;6.20;79.09
83379;BME280;73284;50.882;5.984;2023-12-20T07:52:28;100321.22;;;6.26;79.35
83379;BME280;73284;50.882;5.984;2023-12-20T07:54:54;100325.91;;;6.03;78.49
83379;BME280;73284;50.882;5.984;2023-12-20T07:57:19;100322.09;;;5.55;80.31
83379;BME280;73284;50.882;5.984;2023-12-20T07:59:45;100333.94;;;5.44;80.80
83379;BME280;73284;50.882;5.984;2023-12-20T08:02:10;100327.50;;;5.24;81.97
83379;BME280;73284;50.882;5.984;2023-12-20T08:04:35;100329.81;;;5.17;82.03
83379;BME280;73284;50.882;5.984;2023-12-20T08:07:01;100322.78;;;5.09;82.50
83379;BME280;73284;50.882;5.984;2023-12-20T08:09:27;100332.88;;;5.19;82.37
83379;BME280;73284;50.882;5.984;2023-12-20T08:11:52;100337.31;;;5.27;82.68
83379;BME280;73284;50.882;5.984;2023-12-20T08:14:17;100334.22;;;5.42;81.10
83379;BME280;73284;50.882;5.984;2023-12-20T08:16:43;100334.69;;;5.36;81.03
83379;BME280;73284;50.882;5.984;2023-12-20T08:19:08;100336.53;;;5.35;80.38
83379;BME280;73284;50.882;5.984;2023-12-20T08:21:34;100336.06;;;5.33;80.33
83379;BME280;73284;50.882;5.984;2023-12-20T08:23:59;100323.19;;;5.37;80.77
83379;BME280;73284;50.882;5.984;2023-12-20T08:26:26;100321.72;;;5.10;81.96
83379;BME280;73284;50.882;5.984;2023-12-20T08:28:51;100309.75;;;5.09;80.33
83379;BME280;73284;50.882;5.984;2023-12-20T08:31:17;100317.28;;;5.11;81.00
83379;BME280;73284;50.882;5.984;2023-12-20T08:33:46;100326.13;;;5.10;82.40
83379;BME280;73284;50.882;5.984;2023-12-20T08:36:12;100330.25;;;5.45;82.58
83379;BME280;73284;50.882;5.984;2023-12-20T08:38:38;100336.56;;;5.90;81.52
83379;BME280;73284;50.882;5.984;2023-12-20T08:41:04;100349.69;;;6.39;79.31
83379;BME280;73284;50.882;5.984;2023-12-20T08:43:39;100350.34;;;6.57;78.09
83379;BME280;73284;50.882;5.984;2023-12-20T08:46:06;100354.41;;;6.46;79.28
83379;BME280;73284;50.882;5.984;2023-12-20T08:48:31;100355.06;;;6.84;76.88
83379;BME280;73284;50.882;5.984;2023-12-20T08:50:56;100372.13;;;6.81;77.95
83379;BME280;73284;50.882;5.984;2023-12-20T08:53:22;100373.59;;;6.70;78.02
83379;BME280;73284;50.882;5.984;2023-12-20T08:55:47;100354.28;;;7.24;74.85
83379;BME280;73284;50.882;5.984;2023-12-20T08:58:14;100359.69;;;6.78;76.71
83379;BME280;73284;50.882;5.984;2023-12-20T09:00:39;100377.03;;;6.83;77.94
83379;BME280;73284;50.882;5.984;2023-12-20T09:03:05;100357.63;;;6.92;76.85
83379;BME280;73284;50.882;5.984;2023-12-20T09:05:30;100353.22;;;6.84;77.52
83379;BME280;73284;50.882;5.984;2023-12-20T09:07:56;100352.56;;;6.87;77.29
83379;BME280;73284;50.882;5.984;2023-12-20T09:10:21;100357.78;;;6.67;77.63
83379;BME280;73284;50.882;5.984;2023-12-20T09:12:50;100341.38;;;6.66;77.02
83379;BME280;73284;50.882;5.984;2023-12-20T09:15:16;100347.16;;;6.72;77.01
83379;BME280;73284;50.882;5.984;2023-12-20T09:17:41;100354.59;;;6.61;77.59
83379;BME280;73284;50.882;5.984;2023-12-20T09:20:09;100347.28;;;6.96;76.32
83379;BME280;73284;50.882;5.984;2023-12-20T09:22:34;100334.09;;;6.72;77.55
83379;BME280;73284;50.882;5.984;2023-12-20T09:25:00;100334.06;;;6.80;76.32
83379;BME280;73284;50.882;5.984;2023-12-20T09:27:27;100327.81;;;6.73;77.33
83379;BME280;73284;50.882;5.984;2023-12-20T09:29:52;100323.06;;;7.07;75.44
83379;BME280;73284;50.882;5.984;2023-12-20T09:32:18;100325.34;;;6.97;75.45
83379;BME280;73284;50.882;5.984;2023-12-20T09:34:45;100325.59;;;6.83;76.32
83379;BME280;73284;50.882;5.984;2023-12-20T09:37:11;100326.69;;;6.82;76.61
83379;BME280;73284;50.882;5.984;2023-12-20T09:39:36;100323.34;;;6.94;76.11
83379;BME280;73284;50.882;5.984;2023-12-20T09:42:05;100335.00;;;6.76;76.61
83379;BME280;73284;50.882;5.984;2023-12-20T09:44:32;100334.06;;;6.80;77.05
83379;BME280;73284;50.882;5.984;2023-12-20T09:47:02;100348.63;;;7.02;77.22
83379;BME280;73284;50.882;5.984;2023-12-20T09:49:29;100332.81;;;6.98;75.85
83379;BME280;73284;50.882;5.984;2023-12-20T09:51:55;100345.72;;;7.35;74.19
83379;BME280;73284;50.882;5.984;2023-12-20T09:54:22;100334.97;;;7.16;76.25
83379;BME280;73284;50.882;5.984;2023-12-20T09:56:48;100340.16;;;7.05;76.15
83379;BME280;73284;50.882;5.984;2023-12-20T09:59:14;100340.91;;;6.85;76.97
83379;BME280;73284;50.882;5.984;2023-12-20T10:01:40;100345.69;;;7.03;76.09
83379;BME280;73284;50.882;5.984;2023-12-20T10:04:08;100330.94;;;6.87;76.65
83379;BME280;73284;50.882;5.984;2023-12-20T10:06:37;100338.53;;;6.51;76.01
83379;BME280;73284;50.882;5.984;2023-12-20T10:09:02;100335.81;;;6.47;76.20
83379;BME280;73284;50.882;5.984;2023-12-20T10:11:29;100331.91;;;6.04;76.43
83379;BME280;73284;50.882;5.984;2023-12-20T10:13:59;100335.38;;;6.16;77.00
83379;BME280;73284;50.882;5.984;2023-12-20T10:16:26;100323.69;;;5.93;76.25
83379;BME280;73284;50.882;5.984;2023-12-20T10:18:55;100328.22;;;6.34;78.33
83379;BME280;73284;50.882;5.984;2023-12-20T10:21:22;100322.00;;;6.18;77.43
83379;BME280;73284;50.882;5.984;2023-12-20T10:23:51;100312.66;;;5.88;80.12
83379;BME280;73284;50.882;5.984;2023-12-20T10:26:24;100306.88;;;6.11;78.41
83379;BME280;73284;50.882;5.984;2023-12-20T10:28:51;100303.81;;;6.09;78.45
83379;BME280;73284;50.882;5.984;2023-12-20T10:33:53;100304.84;;;6.17;79.67
83379;BME280;73284;50.882;5.984;2023-12-20T10:36:18;100303.31;;;6.16;78.77
83379;BME280;73284;50.882;5.984;2023-12-20T10:38:44;100293.69;;;6.08;78.38
83379;BME280;73284;50.882;5.984;2023-12-20T10:41:10;100290.00;;;6.09;79.35
83379;BME280;73284;50.882;5.984;2023-12-20T10:43:36;100300.16;;;6.02;79.68
83379;BME280;73284;50.882;5.984;2023-12-20T10:46:03;100288.88;;;6.18;78.89
83379;BME280;73284;50.882;5.984;2023-12-20T10:48:30;100296.00;;;6.30;78.29
83379;BME280;73284;50.882;5.984;2023-12-20T10:50:57;100300.66;;;6.24;78.77
83379;BME280;73284;50.882;5.984;2023-12-20T10:53:24;100314.28;;;6.30;78.43
83379;BME280;73284;50.882;5.984;2023-12-20T10:55:52;100294.38;;;6.25;77.68
83379;BME280;73284;50.882;5.984;2023-12-20T10:58:20;100303.31;;;6.45;78.61
83379;BME280;73284;50.882;5.984;2023-12-20T11:00:50;100299.25;;;6.56;76.77
83379;BME280;73284;50.882;5.984;2023-12-20T11:03:19;100305.72;;;6.70;76.58
83379;BME280;73284;50.882;5.984;2023-12-20T11:06:27;100302.94;;;6.26;78.71
83379;BME280;73284;50.882;5.984;2023-12-20T11:11:32;100295.72;;;6.31;80.15
83379;BME280;73284;50.882;5.984;2023-12-20T11:14:03;100295.25;;;6.29;78.32
83379;BME280;73284;50.882;5.984;2023-12-20T11:16:33;100279.56;;;6.38;79.45
83379;BME280;73284;50.882;5.984;2023-12-20T11:19:11;100269.47;;;6.89;77.08
83379;BME280;73284;50.882;5.984;2023-12-20T11:21:39;100278.13;;;7.34;77.31
83379;BME280;73284;50.882;5.984;2023-12-20T11:24:05;100279.25;;;7.81;74.53
83379;BME280;73284;50.882;5.984;2023-12-20T11:26:31;100284.38;;;7.65;75.46
83379;BME280;73284;50.882;5.984;2023-12-20T11:29:30;100276.94;;;7.55;74.95
83379;BME280;73284;50.882;5.984;2023-12-20T11:31:57;100273.25;;;7.68;74.35
83379;BME280;73284;50.882;5.984;2023-12-20T11:34:27;100276.41;;;7.62;75.42
83379;BME280;73284;50.882;5.984;2023-12-20T11:37:02;100263.09;;;7.55;74.19
83379;BME280;73284;50.882;5.984;2023-12-20T11:39:28;100272.63;;;7.83;74.41
83379;BME280;73284;50.882;5.984;2023-12-20T11:41:56;100282.09;;;8.00;72.71
83379;BME280;73284;50.882;5.984;2023-12-20T11:44:30;100276.84;;;7.88;72.88
83379;BME280;73284;50.882;5.984;2023-12-20T11:46:57;100272.38;;;7.52;73.83
83379;BME280;73284;50.882;5.984;2023-12-20T11:49:23;100270.44;;;7.73;74.88
83379;BME280;73284;50.882;5.984;2023-12-20T11:51:50;100276.41;;;7.86;73.43
83379;BME280;73284;50.882;5.984;2023-12-20T11:54:16;100278.38;;;7.65;76.21
83379;BME280;73284;50.882;5.984;2023-12-20T11:56:41;100264.38;;;6.93;75.54
83379;BME280;73284;50.882;5.984;2023-12-20T11:59:08;100252.84;;;6.61;77.53
83379;BME280;73284;50.882;5.984;2023-12-20T12:01:33;100249.50;;;6.93;75.72
83379;BME280;73284;50.882;5.984;2023-12-20T12:04:03;100241.44;;;6.98;77.13
83379;BME280;73284;50.882;5.984;2023-12-20T12:06:29;100241.72;;;6.85;76.06
83379;BME280;73284;50.882;5.984;2023-12-20T12:08:54;100237.59;;;6.84;78.08
83379;BME280;73284;50.882;5.984;2023-12-20T12:11:21;100229.53;;;6.56;78.24
83379;BME280;73284;50.882;5.984;2023-12-20T12:13:46;100224.66;;;6.55;77.79
83379;BME280;73284;50.882;5.984;2023-12-20T12:16:12;100222.97;;;6.71;77.60
83379;BME280;73284;50.882;5.984;2023-12-20T12:18:38;100215.88;;;6.39;78.35
83379;BME280;73284;50.882;5.984;2023-12-20T12:21:06;100223.00;;;6.50;77.36
83379;BME280;73284;50.882;5.984;2023-12-20T12:23:32;100225.34;;;6.96;76.93
83379;BME280;73284;50.882;5.984;2023-12-20T12:25:57;100229.03;;;6.63;78.16
83379;BME280;73284;50.882;5.984;2023-12-20T12:28:26;100213.88;;;6.77;77.60
83379;BME280;73284;50.882;5.984;2023-12-20T12:30:59;100225.03;;;6.98;77.32
83379;BME280;73284;50.882;5.984;2023-12-20T12:33:28;100230.59;;;7.08;77.58
83379;BME280;73284;50.882;5.984;2023-12-20T12:35:54;100238.41;;;6.96;75.76
83379;BME280;73284;50.882;5.984;2023-12-20T12:38:20;100231.38;;;6.76;80.29
83379;BME280;73284;50.882;5.984;2023-12-20T12:40:46;100225.41;;;7.32;79.09
83379;BME280;73284;50.882;5.984;2023-12-20T12:43:12;100212.22;;;7.16;80.19
83379;BME280;73284;50.882;5.984;2023-12-20T12:45:38;100200.94;;;7.48;78.58
83379;BME280;73284;50.882;5.984;2023-12-20T12:48:03;100203.47;;;7.57;78.26
83379;BME280;73284;50.882;5.984;2023-12-20T12:50:30;100200.72;;;7.53;79.26
83379;BME280;73284;50.882;5.984;2023-12-20T12:52:56;100202.56;;;7.65;78.73
83379;BME280;73284;50.882;5.984;2023-12-20T12:55:21;100193.00;;;7.69;78.14
83379;BME280;73284;50.882;5.984;2023-12-20T12:57:47;100197.16;;;8.33;75.49
83379;BME280;73284;50.882;5.984;2023-12-20T13:00:12;100200.47;;;8.06;77.14